Time;durP1;ratioP1;P1;durP2;ratioP2;P2;SDS_P1;SDS_P2;PMS_P1;PMS_P2;Temp;Humidity;BMP_temperature;BMP_pressure;BME280_temperature;BME280_humidity;BME280_pressure;Samples;Min_cycle;Max_cycle;Signal;HPM_P1;HPM_P2
2023/01/14 00:00:10;;;;;;;6.70;1.60;;;;;;;6.41;80.88;98359.44;5004446;28;20033;-82
2023/01/14 00:02:35;;;;;;;3.20;1.42;;;;;;;6.40;80.65;98344.81;5005466;28;20436;-82
2023/01/14 00:05:01;;;;;;;4.70;1.50;;;;;;;6.42;80.64;98355.91;5003129;28;20109;-82
2023/01/14 00:07:26;;;;;;;7.70;1.98;;;;;;;6.40;80.58;98371.66;5005768;28;20061;-82
2023/01/14 00:09:52;;;;;;;4.75;1.77;;;;;;;6.42;80.51;98369.72;5005137;28;20536;-82
2023/01/14 00:12:20;;;;;;;4.85;1.63;;;;;;;6.41;80.37;98349.84;5008664;28;20034;-82
2023/01/14 00:14:46;;;;;;;5.85;1.67;;;;;;;6.42;80.89;98355.91;5003609;28;20161;-82
2023/01/14 00:17:12;;;;;;;6.40;1.90;;;;;;;6.33;80.61;98362.09;5005229;28;20124;-82
2023/01/14 00:19:38;;;;;;;5.35;1.63;;;;;;;6.38;80.48;98365.00;5003404;28;20034;-82
2023/01/14 00:22:04;;;;;;;4.03;1.30;;;;;;;6.38;80.26;98351.97;5003901;28;20034;-82
2023/01/14 00:24:30;;;;;;;6.13;1.60;;;;;;;6.37;80.15;98364.19;5003425;28;20070;-83
2023/01/14 00:26:57;;;;;;;5.47;1.63;;;;;;;6.41;80.31;98359.44;5004072;28;20038;-82
2023/01/14 00:29:30;;;;;;;6.35;1.67;;;;;;;6.38;80.04;98355.41;5004706;28;20429;-82
2023/01/14 00:31:59;;;;;;;7.80;1.80;;;;;;;6.38;80.44;98371.03;5003303;28;20374;-82
2023/01/14 00:34:27;;;;;;;5.95;1.75;;;;;;;6.39;80.34;98364.03;5004956;28;20021;-82
2023/01/14 00:36:53;;;;;;;6.07;1.88;;;;;;;6.40;80.45;98373.47;5003947;28;20493;-82
2023/01/14 00:39:18;;;;;;;2.92;1.30;;;;;;;6.42;80.51;98371.53;5003779;28;20049;-82
2023/01/14 00:41:44;;;;;;;7.05;1.65;;;;;;;6.43;80.37;98363.53;5003028;28;20518;-82
2023/01/14 00:44:11;;;;;;;3.00;1.23;;;;;;;6.42;80.66;98371.53;5002729;28;20062;-82
2023/01/14 00:46:39;;;;;;;8.15;1.40;;;;;;;6.41;80.60;98365.47;5006510;28;20029;-82
2023/01/14 00:49:07;;;;;;;10.52;1.50;;;;;;;6.45;80.65;98376.38;5003760;28;20045;-82
2023/01/14 00:51:34;;;;;;;5.97;2.08;;;;;;;6.46;80.85;98372.78;5001910;28;20034;-81
2023/01/14 00:54:02;;;;;;;6.70;1.88;;;;;;;6.47;80.37;98389.25;5003039;28;20133;-81
2023/01/14 00:56:28;;;;;;;9.10;1.67;;;;;;;6.52;80.62;98376.53;5002615;28;20042;-81
2023/01/14 00:58:54;;;;;;;8.00;1.95;;;;;;;6.51;80.78;98364.50;5000344;28;20033;-81
2023/01/14 01:01:20;;;;;;;7.10;1.98;;;;;;;6.50;79.91;98373.28;5004550;28;20044;-82
2023/01/14 01:03:49;;;;;;;4.80;1.80;;;;;;;6.54;80.04;98379.81;5005099;28;20042;-82
2023/01/14 01:06:17;;;;;;;7.60;1.70;;;;;;;6.56;80.13;98377.84;5004364;28;20109;-82
2023/01/14 01:08:43;;;;;;;12.95;2.20;;;;;;;6.60;80.03;98384.34;5006005;28;20070;-82
2023/01/14 01:11:09;;;;;;;3.95;1.50;;;;;;;6.57;80.04;98385.47;5007839;28;20120;-81
2023/01/14 01:13:36;;;;;;;2.50;1.45;;;;;;;6.60;79.68;98385.16;5001865;28;20038;-82
2023/01/14 01:16:06;;;;;;;7.22;2.00;;;;;;;6.60;79.55;98379.94;5003413;28;20034;-82
2023/01/14 01:18:32;;;;;;;9.70;1.50;;;;;;;6.67;79.84;98386.09;5001056;28;20556;-82
2023/01/14 01:21:08;;;;;;;5.47;1.15;;;;;;;6.62;79.64;98385.78;5002394;28;20073;-82
2023/01/14 01:23:34;;;;;;;8.98;1.73;;;;;;;6.65;79.77;98387.25;4999738;28;20034;-82
2023/01/14 01:26:03;;;;;;;2.25;0.98;;;;;;;6.67;79.44;98391.31;5005098;28;20034;-82
2023/01/14 01:28:29;;;;;;;5.63;1.63;;;;;;;6.65;78.60;98397.66;5003145;28;20089;-82
2023/01/14 01:31:03;;;;;;;6.95;1.38;;;;;;;6.62;78.52;98393.63;5002955;28;20030;-82
2023/01/14 01:33:30;;;;;;;5.32;1.30;;;;;;;6.58;78.69;98399.31;5002956;28;20046;-81
2023/01/14 01:36:10;;;;;;;3.83;1.50;;;;;;;6.57;78.69;98395.91;5004995;28;20034;-82
2023/01/14 01:38:35;;;;;;;6.97;1.58;;;;;;;6.55;79.22;98400.47;5002536;28;20173;-81
2023/01/14 01:41:01;;;;;;;9.98;2.20;;;;;;;6.53;78.71;98399.81;5001858;28;20104;-82
2023/01/14 01:43:32;;;;;;;6.80;2.08;;;;;;;6.50;78.68;98401.94;5001113;28;20242;-82
2023/01/14 01:45:59;;;;;;;4.75;1.50;;;;;;;6.56;78.50;98404.69;5002659;28;20045;-81
2023/01/14 01:48:52;;;;;;;5.28;1.55;;;;;;;6.55;78.89;98421.31;5000921;28;20038;-81
2023/01/14 01:51:28;;;;;;;5.18;2.00;;;;;;;6.54;78.74;98411.88;5003565;28;20084;-81
2023/01/14 01:53:57;;;;;;;9.38;2.40;;;;;;;6.62;78.42;98411.84;5000636;28;20426;-82
2023/01/14 01:56:30;;;;;;;7.72;2.60;;;;;;;6.58;78.32;98413.16;5001006;28;20108;-81
2023/01/14 01:58:58;;;;;;;4.38;1.80;;;;;;;6.57;78.42;98418.53;5002229;28;20030;-81
2023/01/14 02:01:24;;;;;;;5.20;1.85;;;;;;;6.60;78.33;98410.41;5002134;28;20042;-81
2023/01/14 02:03:51;;;;;;;7.00;1.90;;;;;;;6.61;78.32;98414.63;5001865;28;20026;-81
2023/01/14 02:06:17;;;;;;;9.52;2.00;;;;;;;6.57;78.25;98415.94;5002129;28;20103;-81
2023/01/14 02:08:52;;;;;;;8.27;1.83;;;;;;;6.55;78.37;98408.28;5001199;28;20038;-82
2023/01/14 02:11:49;;;;;;;8.75;2.10;;;;;;;6.49;78.42;98411.56;5002480;28;20034;-81
2023/01/14 02:15:11;;;;;;;6.80;1.70;;;;;;;6.48;78.61;98417.75;4999298;28;20026;-81
2023/01/14 02:17:49;;;;;;;7.20;1.38;;;;;;;6.46;78.65;98404.06;5041255;28;20042;-82
2023/01/14 02:20:36;;;;;;;9.32;1.90;;;;;;;6.45;78.79;98407.66;5006240;28;20046;-82
2023/01/14 02:23:35;;;;;;;8.77;1.75;;;;;;;6.41;78.64;98414.97;5000664;28;20037;-81
2023/01/14 02:26:57;;;;;;;8.93;2.10;;;;;;;6.38;78.78;98417.13;5004361;28;20045;-81
2023/01/14 02:29:50;;;;;;;7.15;1.33;;;;;;;6.36;79.24;98419.88;5001703;28;20042;-82
2023/01/14 02:32:29;;;;;;;8.50;1.60;;;;;;;6.32;79.36;98404.75;5003431;28;20100;-81
2023/01/14 02:35:12;;;;;;;6.35;1.98;;;;;;;6.28;79.45;98421.66;5001691;28;20026;-82
2023/01/14 02:37:56;;;;;;;8.32;2.00;;;;;;;6.27;79.63;98425.25;5008199;28;20061;-81
2023/01/14 02:40:37;;;;;;;4.55;1.85;;;;;;;6.27;79.67;98425.25;5004264;28;20041;-82
2023/01/14 02:46:32;;;;;;;5.82;1.92;;;;;;;6.12;80.04;98420.72;5004262;28;19992;-82
2023/01/14 02:49:02;;;;;;;8.85;2.25;;;;;;;6.11;79.65;98421.66;5003070;28;20038;-81
2023/01/14 02:51:28;;;;;;;5.13;1.73;;;;;;;6.07;79.97;98422.19;5004432;28;20533;-82
2023/01/14 02:53:54;;;;;;;6.82;1.88;;;;;;;6.04;79.92;98419.88;5006052;28;20124;-81
2023/01/14 02:56:19;;;;;;;8.25;1.40;;;;;;;6.05;79.89;98422.31;5005446;28;20042;-82
2023/01/14 02:59:08;;;;;;;5.22;1.38;;;;;;;6.02;79.97;98429.66;5006526;28;20473;-82
2023/01/14 03:02:09;;;;;;;10.25;1.65;;;;;;;6.01;80.32;98441.88;5004981;28;20030;-82
2023/01/14 03:04:57;;;;;;;4.00;1.88;;;;;;;5.98;80.20;98423.94;5004036;28;20540;-82
2023/01/14 03:07:45;;;;;;;6.68;2.10;;;;;;;6.05;80.10;98443.16;5005387;28;20152;-82
2023/01/14 03:10:21;;;;;;;5.28;1.67;;;;;;;6.08;79.95;98442.84;5005998;28;20038;-81
2023/01/14 03:13:20;;;;;;;5.47;1.70;;;;;;;6.14;79.92;98444.81;5003886;28;20044;-81
2023/01/14 03:15:56;;;;;;;7.70;1.73;;;;;;;6.17;79.66;98436.66;5008894;28;20034;-81
2023/01/14 03:18:45;;;;;;;6.15;1.88;;;;;;;6.21;79.95;98434.53;5007024;28;20049;-82
2023/01/14 03:21:35;;;;;;;8.70;1.45;;;;;;;6.20;80.04;98439.91;5005541;28;20492;-82
2023/01/14 03:24:14;;;;;;;8.43;1.90;;;;;;;6.22;80.28;98432.75;5005226;28;20546;-81
2023/01/14 03:26:47;;;;;;;7.63;1.92;;;;;;;6.26;80.16;98431.44;5005800;28;20038;-81
2023/01/14 03:29:20;;;;;;;5.63;1.80;;;;;;;6.32;80.29;98430.81;5005716;28;20084;-81
2023/01/14 03:32:20;;;;;;;7.82;1.70;;;;;;;6.31;80.10;98431.78;5005650;28;20053;-82
2023/01/14 03:34:59;;;;;;;9.93;1.88;;;;;;;6.26;80.13;98439.28;5004783;28;20030;-81
2023/01/14 03:37:28;;;;;;;8.73;1.88;;;;;;;6.17;80.22;98439.25;5005394;28;20030;-81
2023/01/14 03:39:56;;;;;;;8.18;1.42;;;;;;;6.15;80.28;98432.59;5004292;28;20045;-81
2023/01/14 03:42:28;;;;;;;6.22;1.67;;;;;;;6.12;80.73;98448.56;5004642;28;20046;-82
2023/01/14 03:45:14;;;;;;;9.93;1.90;;;;;;;6.09;80.97;98438.44;5018066;28;20069;-82
2023/01/14 03:47:42;;;;;;;5.75;1.70;;;;;;;6.04;81.21;98444.13;5004828;28;20061;-82
2023/01/14 03:50:14;;;;;;;8.32;1.85;;;;;;;6.07;80.88;98445.63;5018928;28;20525;-81
2023/01/14 03:52:51;;;;;;;7.47;1.60;;;;;;;6.09;81.01;98444.47;5005618;28;20060;-82
2023/01/14 03:55:40;;;;;;;3.53;1.85;;;;;;;6.11;80.92;98441.69;5003381;28;20042;-82
2023/01/14 03:58:23;;;;;;;8.68;1.92;;;;;;;6.15;80.17;98446.41;5003184;28;20795;-81
2023/01/14 04:00:55;;;;;;;5.88;2.03;;;;;;;6.20;80.32;98445.13;5008914;28;20041;-82
2023/01/14 04:03:24;;;;;;;7.72;1.70;;;;;;;6.20;80.41;98463.38;5002884;28;20048;-82
2023/01/14 04:05:52;;;;;;;11.27;2.00;;;;;;;6.22;79.69;98458.78;5004841;28;20037;-82
2023/01/14 04:08:21;;;;;;;3.50;1.27;;;;;;;6.24;79.34;98455.06;5003705;28;20526;-81
2023/01/14 04:10:47;;;;;;;9.73;2.28;;;;;;;6.28;79.70;98447.72;5004034;28;20105;-81
2023/01/14 04:16:00;;;;;;;8.98;1.83;;;;;;;6.23;79.10;98435.19;5005057;28;20787;-81
2023/01/14 04:18:25;;;;;;;9.68;1.77;;;;;;;6.29;78.97;98433.72;5003971;28;20034;-82
2023/01/14 04:20:51;;;;;;;6.85;1.85;;;;;;;6.28;78.89;98432.09;5005105;28;20041;-82
2023/01/14 04:23:16;;;;;;;4.85;1.13;;;;;;;6.26;78.60;98439.28;5006011;28;20109;-82
2023/01/14 04:25:42;;;;;;;8.82;1.55;;;;;;;6.26;78.70;98434.06;5003245;28;20034;-81
2023/01/14 04:28:07;;;;;;;5.55;1.42;;;;;;;6.14;78.88;98434.38;5004618;28;20053;-82
2023/01/14 04:30:33;;;;;;;5.18;1.48;;;;;;;6.26;78.72;98437.47;5005627;28;20038;-81
2023/01/14 04:32:58;;;;;;;9.45;1.90;;;;;;;6.19;78.22;98433.09;5006873;28;20045;-82
2023/01/14 04:35:24;;;;;;;10.30;2.08;;;;;;;6.16;78.57;98429.81;5006599;28;20665;-82
2023/01/14 04:37:51;;;;;;;7.93;1.63;;;;;;;6.15;78.45;98422.16;5000935;28;20027;-81
2023/01/14 04:40:17;;;;;;;5.93;1.63;;;;;;;6.10;78.27;98422.66;5001161;28;20672;-82
2023/01/14 04:42:43;;;;;;;10.63;2.05;;;;;;;6.15;78.78;98436.00;5003469;28;20033;-82
2023/01/14 04:45:09;;;;;;;7.75;1.98;;;;;;;6.19;78.96;98420.06;5003641;28;20116;-81
2023/01/14 04:47:34;;;;;;;8.98;1.58;;;;;;;6.19;78.89;98433.91;5003249;28;20045;-82
2023/01/14 04:50:30;;;;;;;6.78;1.88;;;;;;;6.21;78.44;98425.91;5004125;28;20057;-82
2023/01/14 04:52:48;;;;;;;6.85;1.90;;;;;;;6.21;78.51;98428.53;5004100;28;20053;-82
2023/01/14 04:55:14;;;;;;;7.72;1.80;;;;;;;6.17;78.15;98423.63;5003310;28;20528;-81
2023/01/14 04:57:39;;;;;;;6.90;1.55;;;;;;;6.20;78.78;98422.50;5003616;28;20083;-82
2023/01/14 05:00:06;;;;;;;6.10;1.67;;;;;;;6.18;78.97;98429.69;5002335;28;20037;-82
2023/01/14 05:02:31;;;;;;;10.90;2.00;;;;;;;6.17;78.82;98423.63;5003697;28;20066;-82
2023/01/14 05:04:57;;;;;;;8.57;1.92;;;;;;;6.23;79.18;98418.75;5003122;28;20062;-81
2023/01/14 05:07:22;;;;;;;5.50;1.45;;;;;;;6.24;78.87;98420.38;5001750;28;20513;-82
2023/01/14 05:09:48;;;;;;;7.90;1.80;;;;;;;6.35;78.96;98426.06;5004334;28;20385;-82
2023/01/14 05:12:13;;;;;;;7.85;1.67;;;;;;;6.31;78.62;98427.38;5004705;28;20052;-82
2023/01/14 05:14:39;;;;;;;6.07;1.60;;;;;;;6.27;78.96;98430.47;5003028;28;20104;-82
2023/01/14 05:17:04;;;;;;;5.68;1.23;;;;;;;6.26;79.36;98426.25;5005357;28;20034;-82
2023/01/14 05:19:30;;;;;;;5.95;1.50;;;;;;;6.32;79.86;98422.97;5004088;28;20053;-82
2023/01/14 05:21:55;;;;;;;15.07;5.22;;;;;;;6.38;79.42;98423.13;5000836;28;20058;-82
2023/01/14 05:24:20;;;;;;;11.93;2.70;;;;;;;6.41;79.18;98427.19;5005183;28;20458;-82
2023/01/14 05:26:46;;;;;;;9.82;3.35;;;;;;;6.36;79.87;98419.09;5001719;28;20066;-82
2023/01/14 05:29:11;;;;;;;12.93;3.70;;;;;;;6.34;80.16;98421.81;5004558;28;20065;-82
2023/01/14 05:31:37;;;;;;;10.00;2.17;;;;;;;6.40;80.03;98425.56;5002926;28;20065;-82
2023/01/14 05:34:03;;;;;;;7.53;1.90;;;;;;;6.41;80.11;98424.59;5001476;28;20034;-82
2023/01/14 05:36:29;;;;;;;9.15;1.95;;;;;;;6.39;80.08;98416.13;5002221;28;20073;-82
2023/01/14 05:38:54;;;;;;;6.25;2.25;;;;;;;6.35;80.09;98414.81;5003326;28;20476;-82
2023/01/14 05:41:20;;;;;;;6.18;1.77;;;;;;;6.25;80.44;98409.00;5001169;28;20038;-82
2023/01/14 05:46:29;;;;;;;8.40;1.73;;;;;;;6.04;81.44;98415.50;5001526;28;20048;-82
2023/01/14 05:48:55;;;;;;;2.85;1.25;;;;;;;5.88;81.49;98420.69;5002595;28;20042;-82
2023/01/14 05:51:20;;;;;;;6.68;1.50;;;;;;;5.77;82.16;98426.19;5002555;28;20121;-81
2023/01/14 05:53:46;;;;;;;8.85;1.73;;;;;;;5.71;82.60;98422.44;5001774;28;20514;-82
2023/01/14 05:56:11;;;;;;;6.78;1.80;;;;;;;5.64;82.70;98430.09;5003032;28;20428;-82
2023/01/14 05:58:37;;;;;;;7.57;1.80;;;;;;;5.58;82.92;98440.31;5002459;28;20045;-82
2023/01/14 06:06:48;;;;;;;8.63;2.30;;;;;;;5.52;83.80;98438.34;5000153;28;20080;-82
2023/01/14 06:09:17;;;;;;;4.07;1.52;;;;;;;5.46;83.62;98437.19;5003351;28;20037;-82
2023/01/14 06:11:45;;;;;;;8.13;1.95;;;;;;;5.41;84.00;98444.66;5006273;28;20524;-81
2023/01/14 06:14:11;;;;;;;5.75;1.70;;;;;;;5.37;84.25;98438.13;5017746;28;20502;-82
2023/01/14 06:16:40;;;;;;;9.10;1.60;;;;;;;5.33;84.24;98440.22;5011208;28;20037;-82
2023/01/14 06:19:14;;;;;;;9.35;1.90;;;;;;;5.31;84.52;98443.97;5004537;28;20042;-82
2023/01/14 06:21:40;;;;;;;8.63;1.88;;;;;;;5.34;84.39;98449.69;5004390;28;20045;-81
2023/01/14 06:24:07;;;;;;;7.82;1.70;;;;;;;5.33;84.12;98447.22;5005711;28;20041;-81
2023/01/14 06:26:36;;;;;;;7.88;1.85;;;;;;;5.27;84.36;98450.44;5004927;28;20404;-82
2023/01/14 06:29:06;;;;;;;12.23;1.60;;;;;;;5.28;84.36;98441.69;5008121;28;20088;-80
2023/01/14 06:31:33;;;;;;;4.82;1.60;;;;;;;5.19;84.07;98434.81;5002610;28;20038;-81
2023/01/14 06:34:01;;;;;;;5.30;1.75;;;;;;;5.25;84.30;98429.81;5004910;28;20042;-81
2023/01/14 06:36:28;;;;;;;8.38;2.05;;;;;;;5.24;83.83;98429.97;5011218;28;20034;-82
2023/01/14 06:38:53;;;;;;;6.35;1.90;;;;;;;5.26;83.75;98430.63;5004368;28;20033;-82
2023/01/14 06:41:19;;;;;;;13.20;2.70;;;;;;;5.23;83.72;98434.34;5006450;28;20087;-82
2023/01/14 06:43:45;;;;;;;6.47;2.20;;;;;;;5.14;83.98;98429.28;5004695;28;20049;-82
2023/01/14 06:46:14;;;;;;;7.78;1.98;;;;;;;5.18;83.58;98425.41;5005097;28;20498;-82
2023/01/14 06:48:40;;;;;;;11.77;3.25;;;;;;;5.16;83.86;98420.38;5004532;28;20088;-82
2023/01/14 06:51:11;;;;;;;10.93;2.92;;;;;;;5.15;84.03;98407.50;5006046;28;20038;-82
2023/01/14 06:53:37;;;;;;;9.82;2.78;;;;;;;5.14;83.97;98409.28;5006204;28;20085;-82
2023/01/14 06:56:12;;;;;;;6.75;1.88;;;;;;;5.15;84.07;98407.50;5006008;28;20072;-82
2023/01/14 06:58:39;;;;;;;5.30;2.80;;;;;;;5.16;83.69;98407.38;5003473;28;20038;-82
2023/01/14 07:01:05;;;;;;;6.75;1.55;;;;;;;5.16;83.68;98409.13;5005011;28;20035;-82
2023/01/14 07:03:32;;;;;;;9.38;2.10;;;;;;;5.12;83.60;98389.63;5006980;28;20041;-82
2023/01/14 07:06:01;;;;;;;5.75;1.85;;;;;;;5.15;83.77;98395.31;5003139;28;20030;-82
2023/01/14 07:08:28;;;;;;;5.05;1.70;;;;;;;5.18;83.79;98405.41;5004533;28;20030;-82
2023/01/14 07:10:54;;;;;;;5.65;1.80;;;;;;;5.20;83.33;98389.63;5004575;28;20112;-82
2023/01/14 07:13:21;;;;;;;10.82;2.00;;;;;;;5.24;83.38;98398.75;5007338;28;20033;-82
2023/01/14 07:15:47;;;;;;;7.13;1.77;;;;;;;5.21;83.48;98399.88;5016221;28;20033;-82
2023/01/14 07:18:13;;;;;;;6.90;1.75;;;;;;;5.14;83.21;98400.66;5005067;28;20038;-82
2023/01/14 07:20:40;;;;;;;6.00;1.85;;;;;;;5.15;83.55;98397.91;5006045;28;20042;-82
2023/01/14 07:23:06;;;;;;;6.90;2.08;;;;;;;5.22;83.40;98398.94;5000806;28;20437;-82
2023/01/14 07:25:33;;;;;;;6.00;1.98;;;;;;;5.15;83.50;98389.28;5005723;28;20038;-82
2023/01/14 07:27:58;;;;;;;7.70;2.00;;;;;;;5.29;83.49;98383.50;5003064;28;20039;-82
2023/01/14 07:30:24;;;;;;;5.30;1.70;;;;;;;5.27;83.21;98382.81;5006228;28;20034;-82
2023/01/14 07:32:49;;;;;;;5.05;1.48;;;;;;;5.22;83.35;98379.91;5004241;28;20033;-81
2023/01/14 07:35:15;;;;;;;6.35;2.22;;;;;;;5.15;83.33;98377.09;5001080;28;20089;-82
2023/01/14 07:37:40;;;;;;;7.22;1.90;;;;;;;5.27;83.44;98388.03;5008538;28;20101;-82
2023/01/14 07:40:08;;;;;;;3.47;1.65;;;;;;;5.31;83.13;98379.75;5002314;28;20571;-82
2023/01/14 07:42:34;;;;;;;8.52;1.65;;;;;;;5.24;82.92;98373.56;5002861;28;20041;-82
2023/01/14 07:44:59;;;;;;;5.97;1.83;;;;;;;5.22;82.74;98366.91;5003483;28;20034;-82
2023/01/14 07:47:25;;;;;;;2.83;1.33;;;;;;;5.33;83.04;98369.19;5008118;28;20037;-82
2023/01/14 07:49:50;;;;;;;5.10;1.85;;;;;;;5.40;82.27;98366.75;5003290;28;20046;-82
2023/01/14 07:52:16;;;;;;;5.32;1.92;;;;;;;5.48;81.91;98361.59;5003723;28;20033;-82
2023/01/14 07:54:42;;;;;;;6.53;1.83;;;;;;;5.56;81.58;98364.19;5004090;28;20045;-82
2023/01/14 07:57:10;;;;;;;5.38;1.55;;;;;;;5.52;81.26;98362.91;5003841;28;20074;-81
2023/01/14 07:59:38;;;;;;;1.67;1.40;;;;;;;5.46;80.89;98364.34;5003549;28;20038;-82
2023/01/14 08:02:03;;;;;;;8.45;2.20;;;;;;;5.47;81.56;98359.97;5005469;28;20493;-81
2023/01/14 08:04:29;;;;;;;5.03;1.48;;;;;;;5.47;81.32;98360.78;5003239;28;20034;-82
2023/01/14 08:06:56;;;;;;;4.63;2.20;;;;;;;5.60;81.26;98366.31;5004276;28;20030;-81
2023/01/14 08:09:22;;;;;;;8.60;2.33;;;;;;;5.74;80.85;98356.22;5002911;28;20087;-82
2023/01/14 08:11:48;;;;;;;5.32;1.90;;;;;;;5.80;80.34;98351.19;5003104;28;20037;-82
2023/01/14 08:14:13;;;;;;;5.97;1.60;;;;;;;5.86;79.07;98355.75;5005218;28;20033;-81
2023/01/14 08:16:39;;;;;;;4.07;1.40;;;;;;;5.97;78.57;98346.03;5004080;28;20041;-82
2023/01/14 08:19:04;;;;;;;8.00;1.65;;;;;;;6.10;78.84;98341.13;5004593;28;20076;-82
2023/01/14 08:21:30;;;;;;;2.97;1.73;;;;;;;6.23;77.84;98348.41;5006927;28;20388;-83
2023/01/14 08:23:55;;;;;;;6.38;1.88;;;;;;;6.22;77.14;98336.38;5005584;28;20076;-82
2023/01/14 08:26:21;;;;;;;6.22;1.88;;;;;;;6.31;77.01;98338.00;5004322;28;20121;-82
2023/01/14 08:28:46;;;;;;;5.82;1.88;;;;;;;6.34;77.03;98328.03;5004945;28;20093;-82
2023/01/14 08:31:15;;;;;;;7.30;1.70;;;;;;;6.36;76.20;98331.31;4999371;28;20038;-82
2023/01/14 08:33:43;;;;;;;5.97;1.73;;;;;;;6.42;76.34;98335.06;5001924;28;20037;-82
2023/01/14 08:36:14;;;;;;;5.25;1.63;;;;;;;6.38;75.93;98328.53;5001665;28;20037;-82
2023/01/14 08:38:46;;;;;;;4.38;1.65;;;;;;;6.48;75.42;98336.13;5002503;28;20519;-82
2023/01/14 08:41:15;;;;;;;4.18;1.40;;;;;;;6.54;75.20;98328.50;5004198;28;20441;-82
2023/01/14 08:43:42;;;;;;;6.05;1.73;;;;;;;6.62;74.85;98319.81;5002930;28;20096;-82
2023/01/14 08:46:10;;;;;;;2.60;1.55;;;;;;;6.61;74.41;98313.81;5002364;28;20061;-82
2023/01/14 08:48:36;;;;;;;7.70;1.50;;;;;;;6.73;74.35;98305.63;5003185;28;20041;-83
2023/01/14 08:51:08;;;;;;;4.47;1.63;;;;;;;6.77;74.40;98301.66;5015258;28;20025;-82
2023/01/14 08:53:36;;;;;;;5.43;1.60;;;;;;;6.91;74.30;98295.75;5003769;28;20052;-82
2023/01/14 08:56:05;;;;;;;4.22;1.67;;;;;;;6.98;73.42;98288.88;5003969;28;20041;-82
2023/01/14 08:58:31;;;;;;;3.35;1.45;;;;;;;7.10;72.53;98292.69;5006241;28;20504;-82
2023/01/14 09:00:59;;;;;;;5.70;1.50;;;;;;;7.24;72.57;98289.34;5005667;28;20048;-82
2023/01/14 09:03:27;;;;;;;5.38;1.50;;;;;;;7.09;72.42;98272.00;5002062;28;20045;-82
2023/01/14 09:05:57;;;;;;;8.57;1.90;;;;;;;7.30;72.14;98297.47;5003356;28;20070;-82
2023/01/14 09:19:26;;;;;;;8.57;1.67;;;;;;;7.25;71.83;98296.16;5004769;28;20088;-82
2023/01/14 09:21:53;;;;;;;4.20;1.35;;;;;;;7.25;71.21;98300.59;5000263;28;20486;-82
2023/01/14 09:24:18;;;;;;;2.30;1.27;;;;;;;7.37;71.49;98291.38;5002264;28;20037;-82
2023/01/14 09:26:44;;;;;;;3.95;1.52;;;;;;;7.35;71.03;98295.97;5003214;28;20069;-82
2023/01/14 09:29:09;;;;;;;5.57;1.77;;;;;;;7.37;71.82;98283.53;5004074;28;20058;-81
2023/01/14 09:31:35;;;;;;;4.07;1.50;;;;;;;7.34;71.77;98293.53;4999569;28;20085;-81
2023/01/14 09:34:00;;;;;;;5.68;1.58;;;;;;;7.29;71.89;98270.56;4999484;28;20045;-81
2023/01/14 09:36:26;;;;;;;7.40;1.73;;;;;;;7.31;72.03;98273.00;5005791;28;20068;-81
2023/01/14 09:38:52;;;;;;;5.63;2.05;;;;;;;7.29;72.23;98274.97;5001937;28;20038;-81
2023/01/14 09:41:26;;;;;;;5.70;1.85;;;;;;;7.38;73.30;98274.75;5002420;28;20147;-81
2023/01/14 09:43:53;;;;;;;3.05;1.70;;;;;;;7.36;72.54;98275.88;5001306;28;20144;-82
2023/01/14 09:46:24;;;;;;;5.13;1.60;;;;;;;7.39;72.62;98270.34;5001638;28;20037;-82
2023/01/14 09:48:53;;;;;;;4.32;1.50;;;;;;;7.48;72.75;98256.22;5001855;28;20041;-82
2023/01/14 09:52:07;;;;;;;5.60;1.75;;;;;;;7.45;71.67;98253.97;5002941;28;20097;-82
2023/01/14 09:54:45;;;;;;;4.88;1.75;;;;;;;7.60;71.97;98235.72;5002883;28;20058;-81
2023/01/14 09:57:33;;;;;;;3.97;1.80;;;;;;;7.63;71.74;98232.78;5001843;28;20133;-81
2023/01/14 10:00:11;;;;;;;8.13;1.60;;;;;;;7.63;71.54;98225.75;5000818;28;20417;-81
2023/01/14 10:03:13;;;;;;;3.97;1.80;;;;;;;7.71;71.55;98222.25;5002095;28;20100;-81
2023/01/14 10:05:42;;;;;;;6.82;1.90;;;;;;;7.74;71.79;98214.09;5001281;28;20054;-82
2023/01/14 10:08:14;;;;;;;5.72;1.92;;;;;;;7.65;71.57;98205.50;5002260;28;20030;-81
2023/01/14 10:10:46;;;;;;;6.32;1.75;;;;;;;7.79;72.03;98204.69;5003743;28;20050;-82
2023/01/14 10:13:31;;;;;;;7.03;1.80;;;;;;;7.90;71.98;98200.03;5003954;28;20424;-82
2023/01/14 10:16:28;;;;;;;5.65;1.70;;;;;;;7.86;71.30;98194.38;5003596;28;20100;-82
2023/01/14 10:19:28;;;;;;;3.88;1.73;;;;;;;7.79;71.03;98181.19;4996352;28;20042;-81
2023/01/14 10:22:13;;;;;;;5.72;1.95;;;;;;;7.75;71.39;98186.97;4998600;28;20688;-82
2023/01/14 10:24:42;;;;;;;6.55;1.50;;;;;;;7.69;71.52;98172.84;5002157;28;20037;-82
2023/01/14 10:27:16;;;;;;;7.20;1.85;;;;;;;7.74;72.25;98180.94;4998872;28;20042;-82
2023/01/14 10:29:43;;;;;;;7.63;1.75;;;;;;;7.83;71.91;98171.22;5000627;28;20031;-82
2023/01/14 10:32:15;;;;;;;3.38;1.90;;;;;;;7.81;71.61;98175.81;4999696;28;20110;-82
2023/01/14 10:34:47;;;;;;;5.65;1.85;;;;;;;7.88;71.67;98166.28;5002956;28;20042;-82
2023/01/14 10:37:14;;;;;;;4.25;1.80;;;;;;;7.85;71.84;98158.78;5000562;28;20061;-81
2023/01/14 10:39:50;;;;;;;2.03;1.60;;;;;;;7.88;71.38;98142.75;5004702;28;20386;-81
2023/01/14 10:42:26;;;;;;;5.50;1.88;;;;;;;7.90;71.95;98150.41;5001768;28;20036;-83
2023/01/14 10:44:54;;;;;;;6.00;1.58;;;;;;;7.89;71.55;98143.56;5000803;28;20038;-81
2023/01/14 10:47:22;;;;;;;6.85;2.45;;;;;;;8.00;71.72;98135.28;5000754;28;20073;-81
2023/01/14 10:50:12;;;;;;;7.13;2.05;;;;;;;8.09;71.98;98121.13;5001793;28;20037;-82
2023/01/14 10:52:37;;;;;;;1.88;1.33;;;;;;;8.08;71.16;98114.28;5002224;28;20051;-82
2023/01/14 10:55:23;;;;;;;5.68;1.60;;;;;;;8.24;71.07;98113.25;5000480;28;20083;-81
2023/01/14 10:58:15;;;;;;;3.88;1.45;;;;;;;8.41;71.14;98103.44;5005185;28;20064;-81
2023/01/14 11:00:46;;;;;;;6.80;1.60;;;;;;;8.57;70.34;98108.41;5005557;28;20038;-81
2023/01/14 11:03:28;;;;;;;5.20;1.50;;;;;;;8.62;70.09;98089.53;5006884;28;20113;-81
2023/01/14 11:06:02;;;;;;;7.90;2.33;;;;;;;8.70;69.88;98087.63;5004069;28;20548;-81
2023/01/14 11:08:47;;;;;;;4.03;1.67;;;;;;;8.80;69.73;98092.53;5005104;28;20073;-81
2023/01/14 11:11:36;;;;;;;5.80;1.90;;;;;;;8.99;69.52;98085.84;4998360;28;20026;-81
2023/01/14 11:14:23;;;;;;;5.15;1.77;;;;;;;9.05;69.50;98082.47;5003974;28;20152;-81
2023/01/14 11:16:49;;;;;;;6.75;1.85;;;;;;;9.03;69.06;98076.63;5003437;28;20041;-82
2023/01/14 11:19:14;;;;;;;4.07;1.75;;;;;;;8.92;68.96;98070.09;5005210;28;20041;-81
2023/01/14 11:21:44;;;;;;;7.25;2.33;;;;;;;8.95;69.29;98071.53;5000537;28;20128;-82
2023/01/14 11:24:34;;;;;;;4.63;1.55;;;;;;;8.92;69.54;98064.06;4999849;28;20034;-82
2023/01/14 11:27:16;;;;;;;8.35;2.30;;;;;;;8.91;69.72;98060.63;5004564;28;20040;-82
2023/01/14 11:29:57;;;;;;;5.55;1.60;;;;;;;8.92;69.16;98053.59;5004270;28;20048;-81
2023/01/14 11:32:29;;;;;;;5.32;1.83;;;;;;;8.84;69.65;98052.75;5002615;28;20048;-81
2023/01/14 11:34:59;;;;;;;3.35;1.83;;;;;;;8.87;70.59;98050.72;5002029;28;20030;-82
2023/01/14 11:37:41;;;;;;;7.38;1.80;;;;;;;8.80;70.47;98035.78;5008031;28;20166;-82
2023/01/14 11:41:28;;;;;;;4.07;1.63;;;;;;;8.72;70.66;98030.72;4999611;28;20057;-82
2023/01/14 11:43:11;;;;;;;4.90;1.88;;;;;;;8.81;70.67;98037.41;5001437;28;20037;-82
2023/01/14 11:45:36;;;;;;;5.95;1.55;;;;;;;8.72;70.79;98014.22;5001939;28;20042;-82
2023/01/14 11:48:26;;;;;;;3.67;1.35;;;;;;;8.62;72.07;98025.00;5000563;28;20133;-82
2023/01/14 11:51:16;;;;;;;6.47;1.80;;;;;;;8.66;71.84;98009.75;5000384;28;20474;-82
2023/01/14 11:53:44;;;;;;;4.78;1.55;;;;;;;8.74;72.07;97999.94;5003678;28;20065;-82
2023/01/14 11:56:26;;;;;;;3.58;1.55;;;;;;;8.84;71.64;97986.56;5003864;28;20034;-82
2023/01/14 11:58:52;;;;;;;3.08;1.65;;;;;;;8.89;71.77;97971.09;5001784;28;20042;-82
2023/01/14 12:02:28;;;;;;;3.97;1.77;;;;;;;8.83;71.72;97951.75;5002694;28;20038;-82
2023/01/14 12:05:03;;;;;;;7.57;1.90;;;;;;;8.80;71.85;97949.50;5004253;28;20078;-82
2023/01/14 12:07:43;;;;;;;3.92;1.70;;;;;;;8.73;71.85;97942.63;5002039;28;20037;-82
2023/01/14 12:10:33;;;;;;;5.53;1.60;;;;;;;8.72;72.42;97933.16;5000311;28;20038;-82
2023/01/14 12:18:54;;;;;;;5.43;1.70;;;;;;;8.63;72.58;97916.81;5004631;28;20089;-82
2023/01/14 12:21:30;;;;;;;3.60;1.50;;;;;;;8.81;72.76;97914.50;5003391;28;20367;-82
2023/01/14 12:24:14;;;;;;;5.03;1.85;;;;;;;8.74;72.63;97915.47;4998731;28;20030;-82
2023/01/14 12:26:44;;;;;;;3.53;1.55;;;;;;;8.82;73.77;97913.53;5001250;28;20030;-82
2023/01/14 12:29:19;;;;;;;4.10;1.55;;;;;;;8.88;72.59;97905.91;5003161;28;20060;-82
2023/01/14 12:31:59;;;;;;;2.95;1.38;;;;;;;8.83;72.73;97896.03;4999768;28;20516;-82
2023/01/14 12:34:41;;;;;;;4.38;1.75;;;;;;;8.84;72.64;97874.09;5002907;28;20056;-82